Nordic Philip — 5BZH2 — position and weather

sailwx.info

Track history (hours):
 
Tides and Currents Weather Stations Pressure Air Temp Water Temp Dewpoint Dewpoint Depression Visibility Wind Speed Wind Dir Waves Ship Positions

Nordic Philip

Last reported at 2014-Aug-30 13:27 UTC. Time now 2014-Aug-30 14:29 UTC.
Position N 54°33' E 018°30'.

Length 151 m; draft 7.9 m.

Type: Cargo ship. MMSI: 212018000.

Date/timePositionNaut miles runAvg speedWind from/ knotsBaromVisibWave heightAir tempDewpointWater temp
2014-Aug-30 13:27N 54°33' E 018°30'0 0.0
2014-Aug-30 11:33N 54°33' E 018°30'0 0.0
2014-Aug-30 02:15N 54°33' E 018°30'0 0.0
2014-Aug-29 19:33N 54°33' E 018°30'0 0.0
2014-Aug-29 18:33N 54°33' E 018°30'2 1.9
2014-Aug-29 17:33N 54°32' E 018°34'3 1.2
2014-Aug-29 15:23N 54°32' E 018°38'0 0.0
2014-Aug-29 14:29N 54°32' E 018°38'0 0.1
2014-Aug-29 13:29N 54°32' E 018°38'0 0.0
2014-Aug-29 12:32N 54°32' E 018°38'0 0.0
2014-Aug-29 11:32N 54°32' E 018°38'0 0.0
2014-Aug-29 10:32N 54°32' E 018°38'6 6.2
2014-Aug-29 09:33N 54°33' E 018°48'1413.6
2014-Aug-29 08:34N 54°45' E 018°59'1515.5
2014-Aug-29 07:33N 54°59' E 019°07'1312.5
2014-Aug-29 06:33N 55°11' E 019°14'1312.8
2014-Aug-29 05:33N 55°23' E 019°21'1514.5
2014-Aug-29 04:33N 55°37' E 019°29'4713.8
2014-Aug-29 01:08N 56°22' E 019°55'21914.1
2014-Aug-28 09:34N 59°36' E 023°10'1616.1
2014-Aug-28 08:34N 59°40' E 023°41'8716.3
2014-Aug-28 03:14N 60°00' E 026°29'1116.2
2014-Aug-28 02:32N 60°00' E 026°51'9914.1
2014-Aug-27 19:34N 59°54' E 030°08'1 0.0
2014-Aug-27 02:05N 59°53' E 030°09'108 4.1
2014-Aug-25 23:33N 59°59' E 026°34'5012.5
2014-Aug-25 19:33N 59°47' E 024°57'1313.0
2014-Aug-25 18:33N 59°44' E 024°32'2912.7
2014-Aug-25 16:14N 59°35' E 023°36'31512.7
2014-Aug-24 15:27N 55°58' E 016°29'2612.5
2014-Aug-24 13:23N 55°45' E 015°49'1612.2
2014-Aug-24 12:05N 55°38' E 015°24'812.4
2014-Aug-24 11:27N 55°34' E 015°12'1112.5
2014-Aug-24 10:33N 55°29' E 014°54'1312.6
2014-Aug-24 09:33N 55°22' E 014°35'1817.3
2014-Aug-24 08:31N 55°08' E 014°16'1816.6
2014-Aug-24 07:26N 54°58' E 013°50'1416.4
2014-Aug-24 06:33N 54°54' E 013°26'1615.8
2014-Aug-24 05:33N 54°48' E 013°00'1616.1
2014-Aug-24 04:33N 54°42' E 012°35'1515.4
2014-Aug-24 03:33N 54°31' E 012°16'1413.9
2014-Aug-24 02:33N 54°24' E 011°55'23610.3
2014-Aug-23 03:33N 53°33' E 005°23'1818.4
2014-Aug-23 02:33N 53°26' E 004°54'2017.7
2014-Aug-23 01:27N 53°11' E 004°34'1618.0
2014-Aug-23 00:33N 52°57' E 004°19'1817.5
2014-Aug-22 23:33N 52°43' E 004°04'1817.4
2014-Aug-22 22:32N 52°30' E 003°44'1716.8
2014-Aug-22 21:33N 52°15' E 003°32'3215.9
2014-Aug-22 19:33N 51°45' E 003°15'1212.4
2014-Aug-22 18:33N 51°33' E 003°07'9 9.2
2014-Aug-22 17:33N 51°24' E 003°08'1717.1
2014-Aug-22 16:33N 51°26' E 003°35'1313.1
2014-Aug-22 15:33N 51°22' E 003°56'1110.9
2014-Aug-22 14:33N 51°23' E 004°13'3 3.3
2014-Aug-22 13:33N 51°20' E 004°16'0 0.0
2014-Aug-22 12:33N 51°20' E 004°16'0 0.0
2014-Aug-22 11:33N 51°20' E 004°16'0 0.0
2014-Aug-22 10:33N 51°20' E 004°16'0 0.0
2014-Aug-22 09:33N 51°20' E 004°16'0 0.0
2014-Aug-22 08:33N 51°20' E 004°16'0 0.0
2014-Aug-22 07:33N 51°20' E 004°16'0 0.0
2014-Aug-22 06:33N 51°20' E 004°16'0 0.0
2014-Aug-22 05:33N 51°20' E 004°16'0 0.0
2014-Aug-22 04:33N 51°20' E 004°16'0 0.0
2014-Aug-22 03:33N 51°20' E 004°16'0 0.0
2014-Aug-22 02:33N 51°20' E 004°16'0 0.0
2014-Aug-22 01:34N 51°20' E 004°16'1 1.0
2014-Aug-22 00:34N 51°21' E 004°15'8 7.5
2014-Aug-21 23:33N 51°22' E 004°03'8 7.8
2014-Aug-21 22:33N 51°21' E 003°51'1211.6
2014-Aug-21 21:33N 51°26' E 003°35'1413.6
2014-Aug-21 20:33N 51°37' E 003°22'1413.0
2014-Aug-21 19:30N 51°50' E 003°16'1712.1
2014-Aug-21 18:04N 52°03' E 003°35'713.9
2014-Aug-21 17:33N 52°03' E 003°47'1212.0
2014-Aug-21 16:33N 51°59' E 004°05'2 1.5
2014-Aug-21 15:32N 51°57' E 004°04'0 0.0
2014-Aug-21 14:32N 51°57' E 004°04'0 0.0
2014-Aug-21 13:32N 51°57' E 004°04'0 0.0
2014-Aug-21 12:29N 51°57' E 004°04'0 0.0
2014-Aug-21 11:32N 51°57' E 004°04'0 0.0
2014-Aug-21 10:32N 51°57' E 004°04'0 0.0
2014-Aug-21 09:32N 51°57' E 004°04'0 0.0
2014-Aug-21 08:32N 51°57' E 004°04'0 0.0
2014-Aug-21 07:32N 51°57' E 004°04'0 0.0
2014-Aug-21 06:26N 51°57' E 004°04'0 0.0
2014-Aug-21 05:26N 51°57' E 004°04'0 0.0
2014-Aug-21 04:32N 51°57' E 004°04'0 0.0
2014-Aug-21 03:29N 51°57' E 004°04'0 0.0
2014-Aug-21 02:32N 51°57' E 004°04'0 0.0
2014-Aug-21 01:32N 51°57' E 004°04'0 0.1
2014-Aug-21 00:34N 51°57' E 004°04'2 2.0
2014-Aug-20 23:34N 51°59' E 004°04'10 9.5
2014-Aug-20 22:33N 51°57' E 003°49'0 0.0
2014-Aug-20 21:24N 51°57' E 003°49'0 0.1
2014-Aug-20 20:31N 51°57' E 003°49'0 0.1
2014-Aug-20 19:31N 51°57' E 003°49'0 0.0
2014-Aug-20 18:30N 51°57' E 003°48'0 0.0
2014-Aug-20 17:24N 51°57' E 003°48'0 0.0
2014-Aug-20 16:33N 51°57' E 003°48'0 0.1
2014-Aug-20 15:28N 51°57' E 003°49'0 0.1
2014-Aug-20 14:33N 51°57' E 003°49'0 0.1
2014-Aug-20 13:30N 51°57' E 003°49'  
Track history (hours):
 
Tides and Currents Weather Stations Pressure Air Temp Water Temp Dewpoint Dewpoint Depression Visibility Wind Speed Wind Dir Waves Ship Positions

Nordic Philip

Last reported at 2014-Aug-30 13:27 UTC. Time now 2014-Aug-30 14:29 UTC.
Position N 54°33' E 018°30'.

Length 151 m; draft 7.9 m.

Type: Cargo ship. MMSI: 212018000.

Date/timePositionNaut miles runAvg speedWind from/ knotsBaromVisibWave heightAir tempDewpointWater temp
2014-Aug-30 13:27N 54°33' E 018°30'0 0.0
2014-Aug-30 11:33N 54°33' E 018°30'0 0.0
2014-Aug-30 02:15N 54°33' E 018°30'0 0.0
2014-Aug-29 19:33N 54°33' E 018°30'0 0.0
2014-Aug-29 18:33N 54°33' E 018°30'2 1.9
2014-Aug-29 17:33N 54°32' E 018°34'3 1.2
2014-Aug-29 15:23N 54°32' E 018°38'0 0.0
2014-Aug-29 14:29N 54°32' E 018°38'0 0.1
2014-Aug-29 13:29N 54°32' E 018°38'0 0.0
2014-Aug-29 12:32N 54°32' E 018°38'0 0.0
2014-Aug-29 11:32N 54°32' E 018°38'0 0.0
2014-Aug-29 10:32N 54°32' E 018°38'6 6.2
2014-Aug-29 09:33N 54°33' E 018°48'1413.6
2014-Aug-29 08:34N 54°45' E 018°59'1515.5
2014-Aug-29 07:33N 54°59' E 019°07'1312.5
2014-Aug-29 06:33N 55°11' E 019°14'1312.8
2014-Aug-29 05:33N 55°23' E 019°21'1514.5
2014-Aug-29 04:33N 55°37' E 019°29'4713.8
2014-Aug-29 01:08N 56°22' E 019°55'21914.1
2014-Aug-28 09:34N 59°36' E 023°10'1616.1
2014-Aug-28 08:34N 59°40' E 023°41'8716.3
2014-Aug-28 03:14N 60°00' E 026°29'1116.2
2014-Aug-28 02:32N 60°00' E 026°51'9914.1
2014-Aug-27 19:34N 59°54' E 030°08'1 0.0
2014-Aug-27 02:05N 59°53' E 030°09'108 4.1
2014-Aug-25 23:33N 59°59' E 026°34'5012.5
2014-Aug-25 19:33N 59°47' E 024°57'1313.0
2014-Aug-25 18:33N 59°44' E 024°32'2912.7
2014-Aug-25 16:14N 59°35' E 023°36'31512.7
2014-Aug-24 15:27N 55°58' E 016°29'2612.5
2014-Aug-24 13:23N 55°45' E 015°49'1612.2
2014-Aug-24 12:05N 55°38' E 015°24'812.4
2014-Aug-24 11:27N 55°34' E 015°12'1112.5
2014-Aug-24 10:33N 55°29' E 014°54'1312.6
2014-Aug-24 09:33N 55°22' E 014°35'1817.3
2014-Aug-24 08:31N 55°08' E 014°16'1816.6
2014-Aug-24 07:26N 54°58' E 013°50'1416.4
2014-Aug-24 06:33N 54°54' E 013°26'1615.8
2014-Aug-24 05:33N 54°48' E 013°00'1616.1
2014-Aug-24 04:33N 54°42' E 012°35'1515.4
2014-Aug-24 03:33N 54°31' E 012°16'1413.9
2014-Aug-24 02:33N 54°24' E 011°55'23610.3
2014-Aug-23 03:33N 53°33' E 005°23'1818.4
2014-Aug-23 02:33N 53°26' E 004°54'2017.7
2014-Aug-23 01:27N 53°11' E 004°34'1618.0
2014-Aug-23 00:33N 52°57' E 004°19'1817.5
2014-Aug-22 23:33N 52°43' E 004°04'1817.4
2014-Aug-22 22:32N 52°30' E 003°44'1716.8
2014-Aug-22 21:33N 52°15' E 003°32'3215.9
2014-Aug-22 19:33N 51°45' E 003°15'1212.4
2014-Aug-22 18:33N 51°33' E 003°07'9 9.2
2014-Aug-22 17:33N 51°24' E 003°08'1717.1
2014-Aug-22 16:33N 51°26' E 003°35'1313.1
2014-Aug-22 15:33N 51°22' E 003°56'1110.9
2014-Aug-22 14:33N 51°23' E 004°13'3 3.3
2014-Aug-22 13:33N 51°20' E 004°16'0 0.0
2014-Aug-22 12:33N 51°20' E 004°16'0 0.0
2014-Aug-22 11:33N 51°20' E 004°16'0 0.0
2014-Aug-22 10:33N 51°20' E 004°16'0 0.0
2014-Aug-22 09:33N 51°20' E 004°16'0 0.0
2014-Aug-22 08:33N 51°20' E 004°16'0 0.0
2014-Aug-22 07:33N 51°20' E 004°16'0 0.0
2014-Aug-22 06:33N 51°20' E 004°16'0 0.0
2014-Aug-22 05:33N 51°20' E 004°16'0 0.0
2014-Aug-22 04:33N 51°20' E 004°16'0 0.0
2014-Aug-22 03:33N 51°20' E 004°16'0 0.0
2014-Aug-22 02:33N 51°20' E 004°16'0 0.0
2014-Aug-22 01:34N 51°20' E 004°16'1 1.0
2014-Aug-22 00:34N 51°21' E 004°15'8 7.5
2014-Aug-21 23:33N 51°22' E 004°03'8 7.8
2014-Aug-21 22:33N 51°21' E 003°51'1211.6
2014-Aug-21 21:33N 51°26' E 003°35'1413.6
2014-Aug-21 20:33N 51°37' E 003°22'1413.0
2014-Aug-21 19:30N 51°50' E 003°16'1712.1
2014-Aug-21 18:04N 52°03' E 003°35'713.9
2014-Aug-21 17:33N 52°03' E 003°47'1212.0
2014-Aug-21 16:33N 51°59' E 004°05'2 1.5
2014-Aug-21 15:32N 51°57' E 004°04'0 0.0
2014-Aug-21 14:32N 51°57' E 004°04'0 0.0
2014-Aug-21 13:32N 51°57' E 004°04'0 0.0
2014-Aug-21 12:29N 51°57' E 004°04'0 0.0
2014-Aug-21 11:32N 51°57' E 004°04'0 0.0
2014-Aug-21 10:32N 51°57' E 004°04'0 0.0
2014-Aug-21 09:32N 51°57' E 004°04'0 0.0
2014-Aug-21 08:32N 51°57' E 004°04'0 0.0
2014-Aug-21 07:32N 51°57' E 004°04'0 0.0
2014-Aug-21 06:26N 51°57' E 004°04'0 0.0
2014-Aug-21 05:26N 51°57' E 004°04'0 0.0
2014-Aug-21 04:32N 51°57' E 004°04'0 0.0
2014-Aug-21 03:29N 51°57' E 004°04'0 0.0
2014-Aug-21 02:32N 51°57' E 004°04'0 0.0
2014-Aug-21 01:32N 51°57' E 004°04'0 0.1
2014-Aug-21 00:34N 51°57' E 004°04'2 2.0
2014-Aug-20 23:34N 51°59' E 004°04'10 9.5
2014-Aug-20 22:33N 51°57' E 003°49'0 0.0
2014-Aug-20 21:24N 51°57' E 003°49'0 0.1
2014-Aug-20 20:31N 51°57' E 003°49'0 0.1
2014-Aug-20 19:31N 51°57' E 003°49'0 0.0
2014-Aug-20 18:30N 51°57' E 003°48'0 0.0
2014-Aug-20 17:24N 51°57' E 003°48'0 0.0
2014-Aug-20 16:33N 51°57' E 003°48'0 0.1
2014-Aug-20 15:28N 51°57' E 003°49'0 0.1
2014-Aug-20 14:33N 51°57' E 003°49'0 0.1
2014-Aug-20 13:30N 51°57' E 003°49'  

Dump ship's entire track history